ホノルル の空港の天気 - METARとTAF

ホノルル国際空港 ( PHNL / HNL ) - アメリカ ハワイ州ホノルル
飛行場実況気象(Metar)
観測時間02/17 12:53 HST (02/17 22:53 UTC)
風向・風速北東 3m/s
視程10km以上
天気現象
全天の4割程度の雲 雲底高度 980m
全天の8割程度の雲 雲底高度 1520m
全天の8割程度の雲 雲底高度 1830m
気温22.8℃
湿度76%
気圧1014.7hPa
METARPHNL 172253Z 04006KT 10SM SCT032 BKN050 BKN060 23/18 A2997 RMK AO2 RAB26E48 SLP147 P0003 T02280183
過去の天気等 Google飛行場航空写真 Wunderground天気予報

過去48時間のMETAR

飛行場予報(TAF)
発表時間: 2/17 13:06 HST (2/17 23:06 UTC)
予報対象時間: 17日13時 HST ~ 18日14時 HST
風向・風速北 6m/s
視程10km以上
天気現象周辺でしゅう雨
全天の4割程度の雲 雲底高度 910m
全天の8割程度の雲 雲底高度 1370m
全天の8割程度の雲 雲底高度 2130m
17日20時 HST から
風向・風速北北西 2m/s
視程10km以上
天気現象周辺でしゅう雨
全天の4割程度の雲 雲底高度 910m
全天の8割程度の雲 雲底高度 1370m
全天の8割程度の雲 雲底高度 2130m
18日11時 HST から
風向・風速東南東 4m/s
視程10km以上
全天の4割程度の雲 雲底高度 1370m
全天の8割程度の雲 雲底高度 2130m
PHNL 172306Z 1723/1824 01012KT P6SM VCSH SCT030 BKN045 BKN070
FM180600 34004KT P6SM VCSH SCT030 BKN045 BKN070
FM182100 12008KT P6SM SCT045 BKN070